Time,TemperatureF,DewpointF,PressureIn,WindDirection,WindDirectionDegrees,WindSpeedMPH,WindSpeedGustMPH,Humidity,HourlyPrecipIn,Conditions,Clouds,dailyrainin,SoftwareType,DateUTC
2013-04-24 00:02:00,29.0,29.0,-100.00,SW,235,3.0,3.0,99,-99.99,,,-99.99,,2013-04-24 05:02:00,
2013-04-24 00:32:00,30.0,30.0,-100.00,West,275,9.0,10.0,99,-99.99,,,-99.99,,2013-04-24 05:32:00,
2013-04-24 00:42:00,30.0,30.0,-100.00,West,275,9.0,10.0,99,-99.99,,,-99.99,,2013-04-24 05:42:00,
2013-04-24 00:52:00,30.0,30.0,-100.00,West,275,9.0,10.0,99,-99.99,,,-99.99,,2013-04-24 05:52:00,
2013-04-24 01:02:00,30.0,30.0,-100.00,West,275,9.0,10.0,99,-99.99,,,-99.99,,2013-04-24 06:02:00,
2013-04-24 01:33:00,30.0,29.0,-100.00,West,270,8.0,9.0,99,-99.99,,,-99.99,,2013-04-24 06:33:00,
2013-04-24 01:42:00,30.0,29.0,-100.00,West,270,8.0,9.0,99,-99.99,,,-99.99,,2013-04-24 06:42:00,
2013-04-24 01:52:00,30.0,29.0,-100.00,West,270,8.0,9.0,99,-99.99,,,-99.99,,2013-04-24 06:52:00,
2013-04-24 02:02:00,30.0,29.0,-100.00,West,270,8.0,9.0,99,-99.99,,,-99.99,,2013-04-24 07:02:00,
2013-04-24 02:32:00,28.0,28.0,-100.00,WSW,245,4.0,4.0,99,-99.99,,,-99.99,,2013-04-24 07:32:00,
2013-04-24 02:42:00,28.0,28.0,-100.00,WSW,245,4.0,4.0,99,-99.99,,,-99.99,,2013-04-24 07:42:00,
2013-04-24 02:52:00,28.0,28.0,-100.00,WSW,245,4.0,4.0,99,-99.99,,,-99.99,,2013-04-24 07:52:00,
2013-04-24 03:02:00,28.0,28.0,-100.00,WSW,245,4.0,4.0,99,-99.99,,,-99.99,,2013-04-24 08:02:00,
2013-04-24 03:33:00,26.0,26.0,-100.00,SSW,200,3.0,4.0,99,-99.99,,,-99.99,,2013-04-24 08:33:00,
2013-04-24 03:42:00,26.0,26.0,-100.00,SSW,200,3.0,4.0,99,-99.99,,,-99.99,,2013-04-24 08:42:00,
2013-04-24 03:52:00,26.0,26.0,-100.00,SSW,200,3.0,4.0,99,-99.99,,,-99.99,,2013-04-24 08:52:00,
2013-04-24 04:02:00,26.0,26.0,-100.00,SSW,200,3.0,4.0,99,-99.99,,,-99.99,,2013-04-24 09:02:00,
2013-04-24 04:33:00,26.0,26.0,-100.00,SW,215,4.0,5.0,99,-99.99,,,-99.99,,2013-04-24 09:33:00,
2013-04-24 04:42:00,26.0,26.0,-100.00,SW,215,4.0,5.0,99,-99.99,,,-99.99,,2013-04-24 09:42:00,
2013-04-24 04:53:00,26.0,26.0,-100.00,SW,215,4.0,5.0,99,-99.99,,,-99.99,,2013-04-24 09:53:00,
2013-04-24 05:02:00,26.0,26.0,-100.00,SW,215,4.0,5.0,99,-99.99,,,-99.99,,2013-04-24 10:02:00,
2013-04-24 05:33:00,24.0,24.0,-100.00,South,185,4.0,4.0,99,-99.99,,,-99.99,,2013-04-24 10:33:00,
2013-04-24 05:42:00,24.0,24.0,-100.00,South,185,4.0,4.0,99,-99.99,,,-99.99,,2013-04-24 10:42:00,
2013-04-24 05:53:00,24.0,24.0,-100.00,South,185,4.0,4.0,99,-99.99,,,-99.99,,2013-04-24 10:53:00,
2013-04-24 06:02:00,24.0,24.0,-100.00,South,185,4.0,4.0,99,-99.99,,,-99.99,,2013-04-24 11:02:00,
2013-04-24 06:10:00,28.0,28.0,-100.00,SW,230,5.0,6.0,99,-99.99,,,-99.99,,2013-04-24 11:10:00,
2013-04-24 06:32:00,28.0,28.0,-100.00,SW,230,5.0,6.0,99,-99.99,,,-99.99,,2013-04-24 11:32:00,
2013-04-24 06:42:00,28.0,28.0,-100.00,SW,230,5.0,6.0,99,-99.99,,,-99.99,,2013-04-24 11:42:00,
2013-04-24 06:52:00,28.0,28.0,-100.00,SW,230,5.0,6.0,99,-99.99,,,-99.99,,2013-04-24 11:52:00,
2013-04-24 07:02:00,28.0,28.0,-100.00,SW,230,5.0,6.0,99,-99.99,,,-99.99,,2013-04-24 12:02:00,
2013-04-24 07:10:00,27.0,27.0,-100.00,SSW,205,2.0,2.0,99,-99.99,,,-99.99,,2013-04-24 12:10:00,
2013-04-24 07:32:00,27.0,27.0,-100.00,SSW,205,2.0,2.0,99,-99.99,,,-99.99,,2013-04-24 12:32:00,
2013-04-24 07:42:00,27.0,27.0,-100.00,SSW,205,2.0,2.0,99,-99.99,,,-99.99,,2013-04-24 12:42:00,
2013-04-24 07:52:00,27.0,27.0,-100.00,SSW,205,2.0,2.0,99,-99.99,,,-99.99,,2013-04-24 12:52:00,
2013-04-24 08:01:00,27.0,27.0,-100.00,SSW,205,2.0,2.0,99,-99.99,,,-99.99,,2013-04-24 13:01:00,
2013-04-24 08:10:00,30.0,29.0,-100.00,SE,140,2.0,2.0,99,-99.99,,,-99.99,,2013-04-24 13:10:00,
2013-04-24 08:32:00,30.0,29.0,-100.00,SE,140,2.0,2.0,99,-99.99,,,-99.99,,2013-04-24 13:32:00,
2013-04-24 08:42:00,30.0,29.0,-100.00,SE,140,2.0,2.0,99,-99.99,,,-99.99,,2013-04-24 13:42:00,
2013-04-24 08:52:00,30.0,29.0,-100.00,SE,140,2.0,2.0,99,-99.99,,,-99.99,,2013-04-24 13:52:00,
2013-04-24 09:01:00,30.0,29.0,-100.00,SE,140,2.0,2.0,99,-99.99,,,-99.99,,2013-04-24 14:01:00,
2013-04-24 09:10:00,33.0,32.0,-100.00,SSW,205,6.0,6.0,99,-99.99,,,-99.99,,2013-04-24 14:10:00,
2013-04-24 09:32:00,33.0,32.0,-100.00,SSW,205,6.0,6.0,99,-99.99,,,-99.99,,2013-04-24 14:32:00,
2013-04-24 09:42:00,33.0,32.0,-100.00,SSW,205,6.0,6.0,99,-99.99,,,-99.99,,2013-04-24 14:42:00,
2013-04-24 09:52:00,33.0,32.0,-100.00,SSW,205,6.0,6.0,99,-99.99,,,-99.99,,2013-04-24 14:52:00,
2013-04-24 10:01:00,33.0,32.0,-100.00,SSW,205,6.0,6.0,99,-99.99,,,-99.99,,2013-04-24 15:01:00,
2013-04-24 10:33:00,35.0,35.0,-100.00,SW,215,9.0,9.0,99,-99.99,,,-99.99,,2013-04-24 15:33:00,
2013-04-24 10:43:00,35.0,35.0,-100.00,SW,215,9.0,9.0,99,-99.99,,,-99.99,,2013-04-24 15:43:00,
2013-04-24 10:53:00,35.0,35.0,-100.00,SW,215,9.0,9.0,99,-99.99,,,-99.99,,2013-04-24 15:53:00,
2013-04-24 11:03:00,35.0,35.0,-100.00,SW,215,9.0,9.0,99,-99.99,,,-99.99,,2013-04-24 16:03:00,
2013-04-24 11:10:00,35.0,35.0,-100.00,SW,235,11.0,13.0,99,-99.99,,,-99.99,,2013-04-24 16:10:00,
2013-04-24 11:32:00,35.0,35.0,-100.00,SW,235,11.0,13.0,99,-99.99,,,-99.99,,2013-04-24 16:32:00,
2013-04-24 11:42:00,35.0,35.0,-100.00,SW,235,11.0,13.0,99,-99.99,,,-99.99,,2013-04-24 16:42:00,
2013-04-24 11:52:00,35.0,35.0,-100.00,SW,235,11.0,13.0,99,-99.99,,,-99.99,,2013-04-24 16:52:00,
2013-04-24 12:02:00,35.0,35.0,-100.00,SW,235,11.0,13.0,99,-99.99,,,-99.99,,2013-04-24 17:02:00,
2013-04-24 12:10:00,38.0,36.0,-100.00,West,275,9.0,11.0,93,-99.99,,,-99.99,,2013-04-24 17:10:00,
2013-04-24 12:32:00,38.0,36.0,-100.00,West,275,9.0,11.0,93,-99.99,,,-99.99,,2013-04-24 17:32:00,
2013-04-24 12:42:00,38.0,36.0,-100.00,West,275,9.0,11.0,93,-99.99,,,-99.99,,2013-04-24 17:42:00,
2013-04-24 12:52:00,38.0,36.0,-100.00,West,275,9.0,11.0,93,-99.99,,,-99.99,,2013-04-24 17:52:00,
2013-04-24 13:02:00,38.0,36.0,-100.00,West,275,9.0,11.0,93,-99.99,,,-99.99,,2013-04-24 18:02:00,
2013-04-24 13:10:00,38.0,35.0,-100.00,WNW,285,12.0,14.0,86,-99.99,,,-99.99,,2013-04-24 18:10:00,
2013-04-24 13:33:00,38.0,35.0,-100.00,WNW,285,12.0,14.0,86,-99.99,,,-99.99,,2013-04-24 18:33:00,
2013-04-24 13:43:00,38.0,35.0,-100.00,WNW,285,12.0,14.0,86,-99.99,,,-99.99,,2013-04-24 18:43:00,
2013-04-24 13:52:00,38.0,35.0,-100.00,WNW,285,12.0,14.0,86,-99.99,,,-99.99,,2013-04-24 18:52:00,
2013-04-24 14:02:00,38.0,35.0,-100.00,WNW,285,12.0,14.0,86,-99.99,,,-99.99,,2013-04-24 19:02:00,
2013-04-24 14:10:00,38.0,35.0,-100.00,WNW,300,19.0,22.0,87,-99.99,,,-99.99,,2013-04-24 19:10:00,
2013-04-24 14:32:00,38.0,35.0,-100.00,WNW,300,19.0,22.0,87,-99.99,,,-99.99,,2013-04-24 19:32:00,
2013-04-24 14:42:00,38.0,35.0,-100.00,WNW,300,19.0,22.0,87,-99.99,,,-99.99,,2013-04-24 19:42:00,
2013-04-24 14:52:00,38.0,35.0,-100.00,WNW,300,19.0,22.0,87,-99.99,,,-99.99,,2013-04-24 19:52:00,
2013-04-24 15:02:00,38.0,35.0,-100.00,WNW,300,19.0,22.0,87,-99.99,,,-99.99,,2013-04-24 20:02:00,
2013-04-24 15:32:00,39.0,35.0,-100.00,WNW,295,15.0,17.0,86,-99.99,,,-99.99,,2013-04-24 20:32:00,
2013-04-24 15:42:00,39.0,35.0,-100.00,WNW,295,15.0,17.0,86,-99.99,,,-99.99,,2013-04-24 20:42:00,
2013-04-24 15:52:00,39.0,35.0,-100.00,WNW,295,15.0,17.0,86,-99.99,,,-99.99,,2013-04-24 20:52:00,
2013-04-24 16:02:00,39.0,35.0,-100.00,WNW,295,15.0,17.0,86,-99.99,,,-99.99,,2013-04-24 21:02:00,
2013-04-24 16:33:00,37.0,34.0,-100.00,WNW,300,16.0,20.0,88,-99.99,,,-99.99,,2013-04-24 21:33:00,
2013-04-24 16:42:00,37.0,34.0,-100.00,WNW,300,16.0,20.0,88,-99.99,,,-99.99,,2013-04-24 21:42:00,
2013-04-24 16:52:00,37.0,34.0,-100.00,WNW,300,16.0,20.0,88,-99.99,,,-99.99,,2013-04-24 21:52:00,
2013-04-24 17:03:00,37.0,34.0,-100.00,WNW,300,16.0,20.0,88,-99.99,,,-99.99,,2013-04-24 22:03:00,
2013-04-24 17:33:00,36.0,34.0,-100.00,NW,315,21.0,24.0,91,-99.99,,,-99.99,,2013-04-24 22:33:00,
2013-04-24 17:42:00,36.0,34.0,-100.00,NW,315,21.0,24.0,91,-99.99,,,-99.99,,2013-04-24 22:42:00,
2013-04-24 17:52:00,36.0,34.0,-100.00,NW,315,21.0,24.0,91,-99.99,,,-99.99,,2013-04-24 22:52:00,
2013-04-24 18:02:00,36.0,34.0,-100.00,NW,315,21.0,24.0,91,-99.99,,,-99.99,,2013-04-24 23:02:00,
2013-04-24 18:32:00,35.0,34.0,-100.00,NW,310,21.0,25.0,95,-99.99,,,-99.99,,2013-04-24 23:32:00,
2013-04-24 18:42:00,35.0,34.0,-100.00,NW,310,21.0,25.0,95,-99.99,,,-99.99,,2013-04-24 23:42:00,
2013-04-24 18:52:00,35.0,34.0,-100.00,NW,310,21.0,25.0,95,-99.99,,,-99.99,,2013-04-24 23:52:00,
2013-04-24 19:01:00,35.0,34.0,-100.00,NW,310,21.0,25.0,95,-99.99,,,-99.99,,2013-04-25 00:01:00,
2013-04-24 19:32:00,34.0,32.0,-100.00,NW,305,17.0,19.0,93,-99.99,,,-99.99,,2013-04-25 00:32:00,
2013-04-24 19:42:00,34.0,32.0,-100.00,NW,305,17.0,19.0,93,-99.99,,,-99.99,,2013-04-25 00:42:00,
2013-04-24 19:52:00,34.0,32.0,-100.00,NW,305,17.0,19.0,93,-99.99,,,-99.99,,2013-04-25 00:52:00,
2013-04-24 20:01:00,34.0,32.0,-100.00,NW,305,17.0,19.0,93,-99.99,,,-99.99,,2013-04-25 01:01:00,
2013-04-24 20:11:00,34.0,32.0,-100.00,NW,305,17.0,19.0,93,-99.99,,,-99.99,,2013-04-25 01:11:00,
2013-04-24 20:32:00,33.0,32.0,-100.00,NW,305,16.0,18.0,97,-99.99,,,-99.99,,2013-04-25 01:32:00,
2013-04-24 20:42:00,33.0,32.0,-100.00,NW,305,16.0,18.0,97,-99.99,,,-99.99,,2013-04-25 01:42:00,
2013-04-24 20:52:00,33.0,32.0,-100.00,NW,305,16.0,18.0,97,-99.99,,,-99.99,,2013-04-25 01:52:00,
2013-04-24 21:02:00,33.0,32.0,-100.00,NW,305,16.0,18.0,97,-99.99,,,-99.99,,2013-04-25 02:02:00,
2013-04-24 21:10:00,32.0,32.0,-100.00,WNW,295,12.0,15.0,99,-99.99,,,-99.99,,2013-04-25 02:10:00,
2013-04-24 21:32:00,32.0,32.0,-100.00,WNW,295,12.0,15.0,99,-99.99,,,-99.99,,2013-04-25 02:32:00,
2013-04-24 21:42:00,32.0,32.0,-100.00,WNW,295,12.0,15.0,99,-99.99,,,-99.99,,2013-04-25 02:42:00,
2013-04-24 21:52:00,32.0,32.0,-100.00,WNW,295,12.0,15.0,99,-99.99,,,-99.99,,2013-04-25 02:52:00,
2013-04-24 22:02:00,32.0,32.0,-100.00,WNW,295,12.0,15.0,99,-99.99,,,-99.99,,2013-04-25 03:02:00,
2013-04-24 22:33:00,31.0,31.0,-100.00,WNW,300,14.0,16.0,99,-99.99,,,-99.99,,2013-04-25 03:33:00,
2013-04-24 22:43:00,31.0,31.0,-100.00,WNW,300,14.0,16.0,99,-99.99,,,-99.99,,2013-04-25 03:43:00,
2013-04-24 22:52:00,31.0,31.0,-100.00,WNW,300,14.0,16.0,99,-99.99,,,-99.99,,2013-04-25 03:52:00,
2013-04-24 23:03:00,31.0,31.0,-100.00,WNW,300,14.0,16.0,99,-99.99,,,-99.99,,2013-04-25 04:03:00,
2013-04-24 23:10:00,32.0,31.0,-100.00,WNW,290,12.0,14.0,99,-99.99,,,-99.99,,2013-04-25 04:10:00,
2013-04-24 23:33:00,32.0,31.0,-100.00,WNW,290,12.0,14.0,99,-99.99,,,-99.99,,2013-04-25 04:33:00,
2013-04-24 23:43:00,32.0,31.0,-100.00,WNW,290,12.0,14.0,99,-99.99,,,-99.99,,2013-04-25 04:43:00,
2013-04-24 23:52:00,32.0,31.0,-100.00,WNW,290,12.0,14.0,99,-99.99,,,-99.99,,2013-04-25 04:52:00,